Time;durP1;ratioP1;P1;durP2;ratioP2;P2;SDS_P1;SDS_P2;PMS_P1;PMS_P2;Temp;Humidity;BMP_temperature;BMP_pressure;BME280_temperature;BME280_humidity;BME280_pressure;Samples;Min_cycle;Max_cycle;Signal;HPM_P1;HPM_P2
2023/03/18 00:04:15;;;;;;;49.17;21.53;;;;;;;;;;10424614;28;20550;-82
2023/03/18 00:09:16;;;;;;;60.23;22.53;;;;;;;;;;10437655;28;20085;-80
2023/03/18 00:14:18;;;;;;;49.17;21.13;;;;;;;;;;10427242;28;20451;-80
2023/03/18 00:19:19;;;;;;;48.53;20.43;;;;;;;;;;10436802;28;20033;-81
2023/03/18 00:24:20;;;;;;;44.47;19.67;;;;;;;;;;10443590;28;20033;-81
2023/03/18 00:29:22;;;;;;;43.97;20.33;;;;;;;;;;10437775;28;20659;-80
2023/03/18 00:34:23;;;;;;;51.03;20.57;;;;;;;;;;10438305;28;20056;-81
2023/03/18 00:39:31;;;;;;;47.87;19.23;;;;;;;;;;10444491;28;20758;-80
2023/03/18 00:44:32;;;;;;;44.77;18.17;;;;;;;;;;10447676;28;20590;-80
2023/03/18 00:49:33;;;;;;;48.10;19.87;;;;;;;;;;10420719;28;20032;-81
2023/03/18 00:54:34;;;;;;;48.03;19.83;;;;;;;;;;10443424;28;20037;-81
2023/03/18 00:59:35;;;;;;;44.83;18.93;;;;;;;;;;10436084;28;20045;-80
2023/03/18 01:04:37;;;;;;;44.93;19.83;;;;;;;;;;10448501;28;20044;-81
2023/03/18 01:09:39;;;;;;;45.07;19.23;;;;;;;;;;10439026;28;20045;-80
2023/03/18 01:14:41;;;;;;;43.27;19.40;;;;;;;;;;10446654;28;20472;-80
2023/03/18 01:19:43;;;;;;;43.20;18.97;;;;;;;;;;10434853;28;20086;-81
2023/03/18 01:24:45;;;;;;;49.53;20.77;;;;;;;;;;10435937;28;20073;-80
2023/03/18 01:29:47;;;;;;;43.20;18.43;;;;;;;;;;10439688;28;20037;-80
2023/03/18 01:34:48;;;;;;;39.47;18.63;;;;;;;;;;10444545;28;20044;-81
2023/03/18 01:39:49;;;;;;;46.43;19.23;;;;;;;;;;10448892;28;20075;-81
2023/03/18 01:45:08;;;;;;;45.40;20.23;;;;;;;;;;10424389;28;20045;-81
2023/03/18 01:50:11;;;;;;;42.63;18.60;;;;;;;;;;10445273;28;20033;-81
2023/03/18 01:55:14;;;;;;;50.57;19.50;;;;;;;;;;10447584;28;20068;-81
2023/03/18 02:00:15;;;;;;;45.90;20.57;;;;;;;;;;10426116;28;20028;-81
2023/03/18 02:05:19;;;;;;;52.63;21.00;;;;;;;;;;10434967;28;20037;-82
2023/03/18 02:10:22;;;;;;;51.77;20.37;;;;;;;;;;10440027;28;20049;-82
2023/03/18 02:15:26;;;;;;;44.97;19.27;;;;;;;;;;10433077;28;20032;-81
2023/03/18 02:20:59;;;;;;;41.60;18.73;;;;;;;;;;10436462;28;20029;-82
2023/03/18 02:26:07;;;;;;;41.87;17.90;;;;;;;;;;10413244;28;20040;-82
2023/03/18 02:31:11;;;;;;;40.43;17.87;;;;;;;;;;10424615;28;20116;-82
2023/03/18 02:36:21;;;;;;;47.97;19.63;;;;;;;;;;10444536;28;20037;-83
2023/03/18 02:41:31;;;;;;;47.03;18.37;;;;;;;;;;10433801;28;20600;-84
2023/03/18 02:46:35;;;;;;;41.10;17.07;;;;;;;;;;10409009;28;20037;-84
2023/03/18 02:51:37;;;;;;;43.43;19.13;;;;;;;;;;10434813;28;20147;-83
2023/03/18 02:56:38;;;;;;;37.83;17.37;;;;;;;;;;10418163;28;20102;-83
2023/03/18 03:01:40;;;;;;;39.43;17.03;;;;;;;;;;10429460;28;20043;-82
2023/03/18 03:06:42;;;;;;;38.73;17.60;;;;;;;;;;10445244;28;20029;-83
2023/03/18 03:11:45;;;;;;;40.40;18.27;;;;;;;;;;10441044;28;20056;-83
2023/03/18 03:16:46;;;;;;;42.33;18.80;;;;;;;;;;10431425;28;20033;-83
2023/03/18 03:21:47;;;;;;;42.20;17.90;;;;;;;;;;10434604;28;20041;-82
2023/03/18 03:26:48;;;;;;;41.27;17.60;;;;;;;;;;10432400;28;20033;-84
2023/03/18 03:31:49;;;;;;;39.53;17.77;;;;;;;;;;10433797;28;20056;-83
2023/03/18 03:36:50;;;;;;;34.03;17.23;;;;;;;;;;10437917;28;20045;-82
2023/03/18 03:41:51;;;;;;;46.67;20.07;;;;;;;;;;10439176;28;20649;-82
2023/03/18 03:46:52;;;;;;;50.40;20.73;;;;;;;;;;10425410;28;20041;-82
2023/03/18 03:51:53;;;;;;;51.73;22.40;;;;;;;;;;10440374;28;20557;-83
2023/03/18 03:56:54;;;;;;;45.97;20.80;;;;;;;;;;10441880;28;20028;-82
2023/03/18 04:01:55;;;;;;;48.90;20.73;;;;;;;;;;10425390;28;20041;-82
2023/03/18 04:06:57;;;;;;;46.30;21.47;;;;;;;;;;10426074;28;20025;-82
2023/03/18 04:11:58;;;;;;;43.30;19.97;;;;;;;;;;10424698;28;20068;-84
2023/03/18 04:16:59;;;;;;;42.77;17.97;;;;;;;;;;10434823;28;20074;-82
2023/03/18 04:22:01;;;;;;;46.67;20.20;;;;;;;;;;10452123;28;20389;-82
2023/03/18 04:27:02;;;;;;;38.90;18.10;;;;;;;;;;10451762;28;20045;-82
2023/03/18 04:32:03;;;;;;;39.17;18.40;;;;;;;;;;10440919;28;20602;-82
2023/03/18 04:37:04;;;;;;;45.80;19.87;;;;;;;;;;10451683;28;20036;-84
2023/03/18 04:42:05;;;;;;;39.40;17.97;;;;;;;;;;10444038;28;20045;-82
2023/03/18 04:47:06;;;;;;;45.27;18.50;;;;;;;;;;10444610;28;20036;-83
2023/03/18 04:52:08;;;;;;;43.47;18.20;;;;;;;;;;10436814;28;20032;-82
2023/03/18 04:57:09;;;;;;;46.53;20.60;;;;;;;;;;10435579;28;20029;-82
2023/03/18 05:02:11;;;;;;;44.07;19.20;;;;;;;;;;10445375;28;20036;-83
2023/03/18 05:07:14;;;;;;;43.87;19.10;;;;;;;;;;10448818;28;20075;-83
2023/03/18 05:12:15;;;;;;;40.37;18.00;;;;;;;;;;10414938;28;20052;-84
2023/03/18 05:17:16;;;;;;;46.63;19.53;;;;;;;;;;10426178;28;20033;-83
2023/03/18 05:22:18;;;;;;;40.23;18.50;;;;;;;;;;10449500;28;20166;-83
2023/03/18 05:27:20;;;;;;;39.33;17.93;;;;;;;;;;10420173;28;20048;-82
2023/03/18 05:32:21;;;;;;;37.87;17.77;;;;;;;;;;10416475;28;20029;-83
2023/03/18 05:37:22;;;;;;;42.83;19.13;;;;;;;;;;10409528;28;20507;-82
2023/03/18 05:42:24;;;;;;;47.03;19.80;;;;;;;;;;10406777;28;20069;-82
2023/03/18 05:47:25;;;;;;;45.40;20.17;;;;;;;;;;10411486;28;20032;-85
2023/03/18 05:52:27;;;;;;;58.97;25.87;;;;;;;;;;10408188;28;20029;-82
2023/03/18 05:57:28;;;;;;;49.93;24.00;;;;;;;;;;10405292;28;20037;-84
2023/03/18 06:02:29;;;;;;;51.10;24.60;;;;;;;;;;10410148;28;20044;-83
2023/03/18 06:07:30;;;;;;;45.90;23.13;;;;;;;;;;10405633;28;20088;-83
2023/03/18 06:12:31;;;;;;;49.70;23.57;;;;;;;;;;10431773;23;20049;-82
2023/03/18 06:17:32;;;;;;;59.40;27.27;;;;;;;;;;10445891;28;20017;-83
2023/03/18 06:22:34;;;;;;;88.60;38.20;;;;;;;;;;10453225;28;20568;-82
2023/03/18 06:27:35;;;;;;;90.07;35.47;;;;;;;;;;10467104;28;20120;-83
2023/03/18 06:32:36;;;;;;;80.53;35.10;;;;;;;;;;10430663;28;20041;-85
2023/03/18 06:37:38;;;;;;;64.87;29.77;;;;;;;;;;10473107;28;20028;-85
2023/03/18 06:42:40;;;;;;;48.60;21.97;;;;;;;;;;10471625;28;20118;-84
2023/03/18 06:47:41;;;;;;;52.03;23.37;;;;;;;;;;10454151;28;20045;-83
2023/03/18 06:52:42;;;;;;;53.20;23.17;;;;;;;;;;10454910;28;20404;-85
2023/03/18 06:57:44;;;;;;;41.43;20.73;;;;;;;;;;10476546;28;20047;-84
2023/03/18 07:02:45;;;;;;;45.00;21.93;;;;;;;;;;10462165;28;20516;-82
2023/03/18 07:07:47;;;;;;;36.23;18.87;;;;;;;;;;10484542;28;20039;-84
2023/03/18 07:12:49;;;;;;;41.47;19.00;;;;;;;;;;10443087;28;20052;-83
2023/03/18 07:17:51;;;;;;;43.33;19.67;;;;;;;;;;10451324;28;20131;-86
2023/03/18 07:22:52;;;;;;;45.77;19.53;;;;;;;;;;10449568;28;20033;-84
2023/03/18 07:27:53;;;;;;;43.60;20.13;;;;;;;;;;10454871;28;20554;-85
2023/03/18 07:32:54;;;;;;;46.33;21.40;;;;;;;;;;10439466;28;20028;-85
2023/03/18 07:37:57;;;;;;;83.93;38.33;;;;;;;;;;10427848;28;20053;-86
2023/03/18 07:42:59;;;;;;;43.83;18.47;;;;;;;;;;10442156;28;20063;-87
2023/03/18 07:48:00;;;;;;;47.53;22.10;;;;;;;;;;10441393;28;20070;-85
2023/03/18 07:53:02;;;;;;;88.13;34.00;;;;;;;;;;10465885;28;20040;-86
2023/03/18 07:58:03;;;;;;;54.30;35.10;;;;;;;;;;10455170;28;20029;-85
2023/03/18 08:03:04;;;;;;;46.57;22.80;;;;;;;;;;10444665;28;20033;-85
2023/03/18 08:08:06;;;;;;;54.23;32.47;;;;;;;;;;10469388;28;20059;-86
2023/03/18 08:13:07;;;;;;;80.90;37.23;;;;;;;;;;10467601;28;20488;-85
2023/03/18 08:18:08;;;;;;;39.70;18.97;;;;;;;;;;10439888;28;20028;-86
2023/03/18 08:23:09;;;;;;;58.87;27.60;;;;;;;;;;10476568;28;20039;-85
2023/03/18 08:28:10;;;;;;;49.13;23.67;;;;;;;;;;10448737;28;20021;-84
2023/03/18 08:33:11;;;;;;;33.90;20.23;;;;;;;;;;10442030;28;20098;-83
2023/03/18 08:38:12;;;;;;;41.17;22.97;;;;;;;;;;10451318;28;20051;-86
2023/03/18 08:43:13;;;;;;;39.87;19.80;;;;;;;;;;10453989;28;20032;-82
2023/03/18 08:48:14;;;;;;;26.40;15.53;;;;;;;;;;10439228;28;20032;-83
2023/03/18 08:53:16;;;;;;;31.80;15.83;;;;;;;;;;10445248;28;20037;-82
2023/03/18 08:58:17;;;;;;;29.03;15.70;;;;;;;;;;10451390;28;20037;-82
2023/03/18 09:03:18;;;;;;;35.95;16.60;;;;;;;;;;10457889;28;20037;-81
2023/03/18 09:08:20;;;;;;;34.38;19.52;;;;;;;;;;10451737;28;20094;-80
2023/03/18 09:13:22;;;;;;;71.72;29.13;;;;;;;;;;10461809;28;20060;-82
2023/03/18 09:18:23;;;;;;;27.95;14.50;;;;;;;;;;10453609;28;20036;-82
2023/03/18 09:23:26;;;;;;;31.95;16.67;;;;;;;;;;10455212;28;20052;-85
2023/03/18 09:28:27;;;;;;;34.28;17.63;;;;;;;;;;10462478;28;20024;-82
2023/03/18 09:33:28;;;;;;;36.80;21.13;;;;;;;;;;10441533;28;20030;-83
2023/03/18 09:38:30;;;;;;;22.90;10.68;;;;;;;;;;10447988;28;20031;-83
2023/03/18 09:43:36;;;;;;;29.95;15.32;;;;;;;;;;10464636;28;20036;-83
2023/03/18 09:48:37;;;;;;;;;;;;;;;;;;10444168;28;20142;-80
2023/03/18 09:54:04;;;;;;;13.32;7.18;;;;;;;;;;10439855;28;19939;-82
2023/03/18 09:59:11;;;;;;;20.05;9.95;;;;;;;;;;10440577;28;20931;-80
2023/03/18 10:04:24;;;;;;;15.57;7.97;;;;;;;;;;10430299;28;20037;-79
2023/03/18 10:09:30;;;;;;;30.95;14.35;;;;;;;;;;10449917;28;20133;-79
2023/03/18 10:14:44;;;;;;;25.08;11.15;;;;;;;;;;10463929;28;20578;-79
2023/03/18 10:19:48;;;;;;;19.10;9.38;;;;;;;;;;10459242;28;20045;-84
2023/03/18 10:24:57;;;;;;;22.92;11.20;;;;;;;;;;10447959;28;20047;-79
2023/03/18 10:30:17;;;;;;;13.95;8.55;;;;;;;;;;10440907;28;20585;-81
2023/03/18 10:35:33;;;;;;;13.80;7.35;;;;;;;;;;10445046;28;20087;-78
2023/03/18 10:40:36;;;;;;;13.07;6.38;;;;;;;;;;10449225;28;20040;-81
2023/03/18 10:45:38;;;;;;;10.75;6.28;;;;;;;;;;10452731;28;20041;-80
2023/03/18 10:50:43;;;;;;;8.80;5.78;;;;;;;;;;10458853;28;20032;-80
2023/03/18 10:56:04;;;;;;;13.70;7.13;;;;;;;;;;10456268;28;20049;-81
2023/03/18 11:01:06;;;;;;;12.13;6.53;;;;;;;;;;10427457;28;20056;-79
2023/03/18 11:06:15;;;;;;;13.98;7.28;;;;;;;;;;10415828;28;20560;-81
2023/03/18 11:11:16;;;;;;;14.32;7.53;;;;;;;;;;10404947;28;20056;-82
2023/03/18 11:16:22;;;;;;;12.30;6.68;;;;;;;;;;10424384;28;20041;-82
2023/03/18 11:21:27;;;;;;;12.80;7.53;;;;;;;;;;10420168;28;20025;-82
2023/03/18 11:26:29;;;;;;;16.97;8.70;;;;;;;;;;10410395;28;20040;-84
2023/03/18 11:31:31;;;;;;;16.45;7.68;;;;;;;;;;10430803;28;20203;-82
2023/03/18 11:36:32;;;;;;;14.88;7.47;;;;;;;;;;10415860;28;20036;-82
2023/03/18 11:41:37;;;;;;;12.27;7.07;;;;;;;;;;10419839;28;20119;-83
2023/03/18 11:46:38;;;;;;;12.70;7.47;;;;;;;;;;10437929;28;20048;-83
2023/03/18 11:51:44;;;;;;;16.08;8.20;;;;;;;;;;10444410;28;20036;-81
2023/03/18 11:56:56;;;;;;;15.00;9.18;;;;;;;;;;10441593;28;20133;-83
2023/03/18 12:02:12;;;;;;;25.65;12.60;;;;;;;;;;10432207;28;20136;-83
2023/03/18 12:07:14;;;;;;;29.92;15.15;;;;;;;;;;10437565;28;20475;-81
2023/03/18 12:12:21;;;;;;;30.13;14.13;;;;;;;;;;10463303;28;20224;-82
2023/03/18 12:17:42;;;;;;;14.73;7.85;;;;;;;;;;10433681;28;20065;-82
2023/03/18 12:23:03;;;;;;;21.13;11.02;;;;;;;;;;10458926;28;20777;-81
2023/03/18 12:28:17;;;;;;;12.45;6.70;;;;;;;;;;10452659;28;20029;-81
2023/03/18 12:33:18;;;;;;;13.45;7.10;;;;;;;;;;10438817;28;20033;-81
2023/03/18 12:38:20;;;;;;;17.92;9.98;;;;;;;;;;10479282;28;20468;-82
2023/03/18 12:43:21;;;;;;;20.17;11.10;;;;;;;;;;10459959;28;20116;-81
2023/03/18 12:48:23;;;;;;;15.48;9.88;;;;;;;;;;10444422;28;20028;-80
2023/03/18 12:53:46;;;;;;;17.20;9.50;;;;;;;;;;10463776;28;20025;-82
2023/03/18 12:58:50;;;;;;;17.98;8.05;;;;;;;;;;10452130;28;20037;-81
2023/03/18 13:04:03;;;;;;;13.20;7.63;;;;;;;;;;10447084;28;20048;-81
2023/03/18 13:09:05;;;;;;;18.15;10.20;;;;;;;;;;10441460;28;20033;-79
2023/03/18 13:14:20;;;;;;;15.05;9.18;;;;;;;;;;10462013;28;20060;-80
2023/03/18 13:19:22;;;;;;;14.52;8.32;;;;;;;;;;10443994;28;20763;-80
2023/03/18 13:24:32;;;;;;;20.10;11.27;;;;;;;;;;10442730;28;20075;-80
2023/03/18 13:29:57;;;;;;;15.13;8.40;;;;;;;;;;10462200;28;20646;-80
2023/03/18 13:35:17;;;;;;;15.63;10.25;;;;;;;;;;10443840;28;20040;-81
2023/03/18 13:40:24;;;;;;;25.40;13.13;;;;;;;;;;10469397;28;20527;-82
2023/03/18 13:45:38;;;;;;;19.98;9.93;;;;;;;;;;10434338;28;20536;-81
2023/03/18 13:50:41;;;;;;;16.98;10.05;;;;;;;;;;10461321;28;20040;-80
2023/03/18 13:55:46;;;;;;;16.10;9.40;;;;;;;;;;10458646;28;20527;-80
2023/03/18 14:00:56;;;;;;;14.00;7.40;;;;;;;;;;10438164;28;20396;-80
2023/03/18 14:06:03;;;;;;;24.92;13.27;;;;;;;;;;10473978;28;20099;-81
2023/03/18 14:11:25;;;;;;;24.63;16.05;;;;;;;;;;10460976;28;20107;-80
2023/03/18 14:16:47;;;;;;;33.53;17.40;;;;;;;;;;10459000;28;20040;-80
2023/03/18 14:21:53;;;;;;;16.67;10.40;;;;;;;;;;10470713;28;20086;-80
2023/03/18 14:26:57;;;;;;;43.03;24.67;;;;;;;;;;10446930;28;20029;-82
2023/03/18 14:31:59;;;;;;;14.32;8.13;;;;;;;;;;10450274;28;20158;-81
2023/03/18 14:37:18;;;;;;;16.30;8.65;;;;;;;;;;10460818;28;20476;-81
2023/03/18 14:42:22;;;;;;;18.08;11.60;;;;;;;;;;10452700;28;20477;-80
2023/03/18 14:47:26;;;;;;;190.68;101.30;;;;;;;;;;10443498;28;20094;-80
2023/03/18 14:52:33;;;;;;;86.32;45.17;;;;;;;;;;10443791;28;20041;-80
2023/03/18 14:57:34;;;;;;;16.33;8.63;;;;;;;;;;10440954;28;20033;-81
2023/03/18 15:02:38;;;;;;;16.48;8.32;;;;;;;;;;10440743;28;20044;-80
2023/03/18 15:07:40;;;;;;;54.88;20.92;;;;;;;;;;10444933;28;20048;-80
2023/03/18 15:12:41;;;;;;;26.17;10.80;;;;;;;;;;10441951;28;20052;-79
2023/03/18 15:17:45;;;;;;;34.60;18.77;;;;;;;;;;10440572;28;20035;-79
2023/03/18 15:22:47;;;;;;;29.75;14.63;;;;;;;;;;10444165;28;20347;-78
2023/03/18 15:27:48;;;;;;;24.42;12.48;;;;;;;;;;10436205;28;20491;-79
2023/03/18 15:32:50;;;;;;;13.60;6.18;;;;;;;;;;10444182;28;20523;-80
2023/03/18 15:38:04;;;;;;;14.25;7.07;;;;;;;;;;10439409;28;20082;-81
2023/03/18 15:43:08;;;;;;;29.23;13.82;;;;;;;;;;10441323;28;20047;-79
2023/03/18 15:48:18;;;;;;;20.52;9.77;;;;;;;;;;10430911;28;20037;-79
2023/03/18 15:53:24;;;;;;;22.77;12.77;;;;;;;;;;10444565;28;20427;-79
2023/03/18 15:58:26;;;;;;;19.98;11.00;;;;;;;;;;10438999;28;20072;-78
2023/03/18 16:03:32;;;;;;;20.23;10.35;;;;;;;;;;10440736;28;20124;-79
2023/03/18 16:08:33;;;;;;;;;;;;;;;;;;10430682;28;20032;-79
2023/03/18 16:13:34;;;;;;;34.97;16.60;;;;;;;;;;10440296;28;19928;-79
2023/03/18 16:18:35;;;;;;;39.15;18.27;;;;;;;;;;10442191;28;20041;-79
2023/03/18 16:23:36;;;;;;;43.65;21.23;;;;;;;;;;10442682;28;20041;-80
2023/03/18 16:28:38;;;;;;;165.48;76.25;;;;;;;;;;10436073;28;20735;-79
2023/03/18 16:33:40;;;;;;;69.22;31.42;;;;;;;;;;10439773;28;20436;-80
2023/03/18 16:38:41;;;;;;;99.72;47.25;;;;;;;;;;10443190;28;20028;-79
2023/03/18 16:43:44;;;;;;;82.78;37.78;;;;;;;;;;10441525;28;20119;-79
2023/03/18 16:48:45;;;;;;;130.18;66.25;;;;;;;;;;10442262;28;20139;-80
2023/03/18 16:53:47;;;;;;;136.15;66.25;;;;;;;;;;10433826;28;20382;-80
2023/03/18 16:58:49;;;;;;;126.07;57.95;;;;;;;;;;10427638;28;20025;-79
2023/03/18 17:03:50;;;;;;;91.88;43.85;;;;;;;;;;10442568;28;20033;-80
2023/03/18 17:08:52;;;;;;;128.55;52.38;;;;;;;;;;10441847;28;20025;-81
2023/03/18 17:13:53;;;;;;;154.97;62.87;;;;;;;;;;10438629;28;20057;-81
2023/03/18 17:18:54;;;;;;;101.13;45.63;;;;;;;;;;10438070;28;20029;-79
2023/03/18 17:23:55;;;;;;;85.53;40.80;;;;;;;;;;10448921;28;20041;-77
2023/03/18 17:28:57;;;;;;;82.13;40.47;;;;;;;;;;10447548;28;20036;-79
2023/03/18 17:33:58;;;;;;;74.13;38.40;;;;;;;;;;10448702;28;20037;-78
2023/03/18 17:38:59;;;;;;;83.17;38.27;;;;;;;;;;10448518;28;20680;-80
2023/03/18 17:44:00;;;;;;;72.93;34.50;;;;;;;;;;10439814;28;20037;-81
2023/03/18 17:49:03;;;;;;;66.10;31.13;;;;;;;;;;10443219;28;20056;-82
2023/03/18 17:54:05;;;;;;;73.00;33.93;;;;;;;;;;10465836;28;20035;-80
2023/03/18 17:59:13;;;;;;;74.87;35.77;;;;;;;;;;10465968;28;20536;-81
2023/03/18 18:04:16;;;;;;;79.07;37.87;;;;;;;;;;10445538;28;20041;-79
2023/03/18 18:09:18;;;;;;;83.50;39.23;;;;;;;;;;10448649;28;20493;-79
2023/03/18 18:14:22;;;;;;;145.20;69.30;;;;;;;;;;10450293;28;20086;-79
2023/03/18 18:19:23;;;;;;;209.60;101.30;;;;;;;;;;10464296;28;20472;-79
2023/03/18 18:24:28;;;;;;;236.87;113.40;;;;;;;;;;10456936;28;20066;-79
2023/03/18 18:29:30;;;;;;;170.57;82.37;;;;;;;;;;10461895;28;20039;-79
2023/03/18 18:34:31;;;;;;;138.63;63.90;;;;;;;;;;10445560;28;20507;-78
2023/03/18 18:39:32;;;;;;;121.53;56.10;;;;;;;;;;10459656;28;20044;-79
2023/03/18 18:44:34;;;;;;;114.53;53.17;;;;;;;;;;10434189;28;20045;-78
2023/03/18 18:49:35;;;;;;;113.33;52.37;;;;;;;;;;10445833;28;20044;-80
2023/03/18 18:54:36;;;;;;;114.07;54.10;;;;;;;;;;10434116;28;20510;-80
2023/03/18 18:59:37;;;;;;;159.40;70.53;;;;;;;;;;10437232;28;20029;-79
2023/03/18 19:04:38;;;;;;;145.13;63.63;;;;;;;;;;10445061;28;20094;-79
2023/03/18 19:09:39;;;;;;;134.83;61.83;;;;;;;;;;10457888;28;20039;-79
2023/03/18 19:14:40;;;;;;;137.30;59.53;;;;;;;;;;10459663;28;20057;-79
2023/03/18 19:19:42;;;;;;;129.53;58.40;;;;;;;;;;10435651;28;20041;-79
2023/03/18 19:24:47;;;;;;;131.50;64.87;;;;;;;;;;10427458;28;20041;-79
2023/03/18 19:29:48;;;;;;;150.67;69.17;;;;;;;;;;10421387;28;20067;-81
2023/03/18 19:34:50;;;;;;;131.77;61.37;;;;;;;;;;10441453;28;20045;-78
2023/03/18 19:39:51;;;;;;;131.40;60.17;;;;;;;;;;10442277;28;20438;-80
2023/03/18 19:44:52;;;;;;;152.70;69.10;;;;;;;;;;10441879;28;20040;-78
2023/03/18 19:49:54;;;;;;;172.23;78.07;;;;;;;;;;10428418;28;20037;-78
2023/03/18 19:54:55;;;;;;;179.73;79.87;;;;;;;;;;10452070;28;20033;-78
2023/03/18 19:59:57;;;;;;;149.30;66.20;;;;;;;;;;10436087;28;20116;-78
2023/03/18 20:04:59;;;;;;;128.37;59.20;;;;;;;;;;10439760;28;20498;-79
2023/03/18 20:10:00;;;;;;;139.27;64.73;;;;;;;;;;10444133;28;20036;-78
2023/03/18 20:15:03;;;;;;;145.53;69.33;;;;;;;;;;10436780;28;20053;-81
2023/03/18 20:20:06;;;;;;;142.60;70.40;;;;;;;;;;10458635;28;20059;-80
2023/03/18 20:25:14;;;;;;;115.70;53.97;;;;;;;;;;10435995;28;20077;-81
2023/03/18 20:30:21;;;;;;;108.53;50.07;;;;;;;;;;10435747;28;20040;-78
2023/03/18 20:35:27;;;;;;;113.53;48.33;;;;;;;;;;10447052;28;20452;-79
2023/03/18 20:40:29;;;;;;;93.40;42.30;;;;;;;;;;10448203;28;20028;-79
2023/03/18 20:45:30;;;;;;;97.50;44.73;;;;;;;;;;10436734;28;20044;-79
2023/03/18 20:50:31;;;;;;;98.27;42.63;;;;;;;;;;10432136;28;20028;-79
2023/03/18 20:55:33;;;;;;;135.10;64.70;;;;;;;;;;10441427;28;20029;-81
2023/03/18 21:00:34;;;;;;;106.10;53.93;;;;;;;;;;10438467;28;20636;-81
2023/03/18 21:05:35;;;;;;;101.47;47.73;;;;;;;;;;10459629;28;20036;-79
2023/03/18 21:10:36;;;;;;;104.13;47.87;;;;;;;;;;10446583;28;20558;-80
2023/03/18 21:15:37;;;;;;;92.20;42.90;;;;;;;;;;10447369;28;20163;-79
2023/03/18 21:20:38;;;;;;;84.87;41.67;;;;;;;;;;10448730;28;20082;-79
2023/03/18 21:25:39;;;;;;;92.83;43.67;;;;;;;;;;10447342;28;20037;-79
2023/03/18 21:30:41;;;;;;;96.37;45.77;;;;;;;;;;10441109;28;20493;-80
2023/03/18 21:35:42;;;;;;;103.37;49.33;;;;;;;;;;10442693;28;20120;-79
2023/03/18 21:40:44;;;;;;;102.17;50.63;;;;;;;;;;10457791;28;20801;-79
2023/03/18 21:45:47;;;;;;;100.17;46.70;;;;;;;;;;10445439;28;20033;-80
2023/03/18 21:50:48;;;;;;;103.10;47.80;;;;;;;;;;10437128;28;20029;-80
2023/03/18 21:55:50;;;;;;;107.00;47.93;;;;;;;;;;10448597;28;20484;-80
2023/03/18 22:00:53;;;;;;;115.43;52.17;;;;;;;;;;10449366;28;20037;-80
2023/03/18 22:05:55;;;;;;;115.73;50.97;;;;;;;;;;10449744;28;20032;-80
2023/03/18 22:10:56;;;;;;;120.30;49.60;;;;;;;;;;10442627;28;20370;-81
2023/03/18 22:15:57;;;;;;;97.57;44.93;;;;;;;;;;10425911;28;20049;-79
2023/03/18 22:20:58;;;;;;;152.37;67.83;;;;;;;;;;10463169;28;20032;-80
2023/03/18 22:25:59;;;;;;;137.97;59.63;;;;;;;;;;10445807;28;20067;-80
2023/03/18 22:31:00;;;;;;;105.40;46.87;;;;;;;;;;10435657;28;20127;-79
2023/03/18 22:36:01;;;;;;;88.67;39.73;;;;;;;;;;10452841;28;20397;-80
2023/03/18 22:41:02;;;;;;;91.33;40.43;;;;;;;;;;10466181;28;20043;-81
2023/03/18 22:46:05;;;;;;;92.47;41.30;;;;;;;;;;10442885;28;20193;-79
2023/03/18 22:51:06;;;;;;;89.87;39.23;;;;;;;;;;10444993;28;20412;-80
2023/03/18 22:56:09;;;;;;;89.30;40.00;;;;;;;;;;10450195;28;20037;-79
2023/03/18 23:01:15;;;;;;;117.50;48.80;;;;;;;;;;10448603;28;20025;-79
2023/03/18 23:06:18;;;;;;;116.68;49.70;;;;;;;;;;10453868;28;20408;-80
2023/03/18 23:11:19;;;;;;;98.47;43.23;;;;;;;;;;10453826;28;20380;-79
2023/03/18 23:16:21;;;;;;;76.33;36.60;;;;;;;;;;10446846;28;20029;-80
2023/03/18 23:21:24;;;;;;;77.07;36.80;;;;;;;;;;10423760;28;20071;-79
2023/03/18 23:26:25;;;;;;;72.17;34.37;;;;;;;;;;10444364;28;20429;-80
2023/03/18 23:31:26;;;;;;;78.60;37.10;;;;;;;;;;10432845;28;20029;-79
2023/03/18 23:36:27;;;;;;;93.80;40.60;;;;;;;;;;10462201;28;20029;-81
2023/03/18 23:41:28;;;;;;;88.00;38.60;;;;;;;;;;10439575;28;20037;-81
2023/03/18 23:46:29;;;;;;;96.47;44.43;;;;;;;;;;10433462;28;20036;-81
2023/03/18 23:51:30;;;;;;;100.53;45.23;;;;;;;;;;10435297;28;20025;-79
2023/03/18 23:56:31;;;;;;;95.80;42.03;;;;;;;;;;10441338;28;20407;-80
